METAR Data
IDs: Format: Raw Decoded Include TAF

Data at: 2216 UTC 22 Sep 2020

KPDC 222215Z AUTO 14004KT 10SM CLR 26/13 A3005 RMK AO2 T02560129
KPDC 222155Z AUTO 14004KT 10SM CLR 26/12 A3005 RMK AO2 T02580123
KPDC 222135Z AUTO 15003KT 10SM CLR 26/12 A3005 RMK AO2 T02600123
KPDC 222115Z AUTO 16003KT 10SM CLR 26/12 A3006 RMK AO2 T02600122
KPDC 222055Z AUTO 18006KT 10SM CLR 26/13 A3006 RMK AO2 T02600129
KPDC 222035Z AUTO 15005KT 10SM CLR 26/14 A3006 RMK AO2 T02610136
KPDC 222015Z AUTO 13004KT 10SM CLR 26/14 A3007 RMK AO2 T02570137
KPDC 221955Z AUTO 17003KT 10SM CLR 26/14 A3008 RMK AO2 T02570139
KPDC 221935Z AUTO 20005KT 10SM CLR 26/14 A3008 RMK AO2 T02570139
KPDC 221915Z AUTO 18005KT 10SM CLR 25/14 A3009 RMK AO2 T02530138
KPDC 221855Z AUTO 18004KT 10SM CLR 25/14 A3010 RMK AO2 T02510138
KPDC 221835Z AUTO 19005KT 10SM CLR 25/14 A3011 RMK AO2 T02500139
KPDC 221815Z AUTO 18003KT 10SM CLR 24/13 A3012 RMK AO2 T02440134
KPDC 221755Z AUTO 18005KT 10SM CLR 24/14 A3013 RMK AO2 T02410136 10241 20126
KPDC 221735Z AUTO 22003KT 10SM CLR 24/14 A3013 RMK AO2 T02360138
KPDC 221715Z AUTO 00000KT 10SM CLR 23/14 A3014 RMK AO2 T02280135
KPDC 221655Z AUTO 19003KT 10SM CLR 22/13 A3015 RMK AO2 T02220134
KPDC 221635Z AUTO 00000KT 10SM CLR 22/13 A3015 RMK AO2 T02160131
KPDC 221615Z AUTO 20004KT 10SM CLR 21/13 A3016 RMK AO2 T02110134
KPDC 221555Z AUTO 19004KT 10SM CLR 20/13 A3016 RMK AO2 T02000127
KPDC 221535Z AUTO 15003KT 10SM CLR 19/12 A3017 RMK AO2 T01910123
KPDC 221515Z AUTO 18003KT 10SM CLR 19/12 A3017 RMK AO2 T01860121
KPDC 221455Z AUTO 17003KT 10SM CLR 18/12 A3017 RMK AO2 T01790118
KPDC 221435Z AUTO 19003KT 10SM CLR 17/12 A3018 RMK AO2 T01740118
KPDC 221415Z AUTO 00000KT 10SM CLR 17/12 A3018 RMK AO2 T01670118
KPDC 221355Z AUTO 00000KT 10SM CLR 16/12 A3017 RMK AO2 T01570116
KPDC 221335Z AUTO 11003KT 10SM CLR 15/12 A3017 RMK AO2 T01500115
KPDC 221315Z AUTO 00000KT 10SM CLR 14/11 A3018 RMK AO2 T01400112
KPDC 221255Z AUTO 14004KT 10SM CLR 14/11 A3017 RMK AO2 T01360111
KPDC 221235Z AUTO 00000KT 10SM CLR 13/11 A3018 RMK AO2 T01300110
KPDC 221215Z AUTO 00000KT 10SM CLR 13/11 A3018 RMK AO2 T01300105
KPDC 221155Z AUTO 00000KT 10SM CLR 13/11 A3018 RMK AO2 T01260105 10170 20125
KPDC 221135Z AUTO 00000KT 10SM CLR 13/11 A3018 RMK AO2 T01280105
KPDC 221115Z AUTO 00000KT 10SM CLR 13/10 A3017 RMK AO2 T01260103
KPDC 221055Z AUTO 00000KT 10SM CLR 13/10 A3018 RMK AO2 T01320102
KPDC 221035Z AUTO 00000KT 10SM CLR 13/10 A3017 RMK AO2 T01300104
KPDC 221015Z AUTO 10003KT 10SM CLR 13/11 A3017 RMK AO2 T01310105
KPDC 220955Z AUTO 00000KT 10SM CLR 13/10 A3018 RMK AO2 T01310103
KPDC 220935Z AUTO 13003KT 10SM CLR 13/10 A3018 RMK AO2 T01330103
KPDC 220915Z AUTO 11003KT 10SM CLR 13/10 A3018 RMK AO2 T01300102
KPDC 220855Z AUTO 12003KT 10SM CLR 13/10 A3017 RMK AO2 T01310102
KPDC 220835Z AUTO 11004KT 10SM CLR 14/11 A3018 RMK AO2 T01360105
KPDC 220815Z AUTO 00000KT 10SM CLR 14/11 A3018 RMK AO2 T01410105
KPDC 220755Z AUTO 00000KT 10SM CLR 15/10 A3018 RMK AO2 T01510100
KPDC 220735Z AUTO 00000KT 10SM CLR 16/10 A3018 RMK AO2 T01570097
KPDC 220715Z AUTO 00000KT 10SM CLR 17/10 A3019 RMK AO2 T01650098
KPDC 220655Z AUTO 23004KT 10SM CLR 17/10 A3019 RMK AO2 T01680097
KPDC 220635Z AUTO 00000KT 10SM CLR 17/10 A3019 RMK AO2 T01700097
KPDC 220615Z AUTO 21004KT 10SM CLR 17/10 A3019 RMK AO2 T01680096
KPDC 220555Z AUTO 00000KT 10SM CLR 16/10 A3019 RMK AO2 T01620097 10200 20153 402380088
KPDC 220535Z AUTO 00000KT 10SM CLR 16/10 A3019 RMK AO2 T01620095
KPDC 220515Z AUTO 00000KT 10SM CLR 16/09 A3019 RMK AO2 T01600094
KPDC 220455Z AUTO 00000KT 10SM CLR 16/09 A3019 RMK AO2 T01630090
KPDC 220435Z AUTO 00000KT 10SM CLR 18/09 A3019 RMK AO2 T01820088
KPDC 220415Z AUTO 16003KT 10SM CLR 18/09 A3018 RMK AO2 T01810088
KPDC 220355Z AUTO 00000KT 10SM CLR 19/08 A3018 RMK AO2 T01900082
KPDC 220335Z AUTO 16004KT 10SM CLR 18/08 A3017 RMK AO2 T01830083
KPDC 220315Z AUTO 00000KT 10SM CLR 18/08 A3017 RMK AO2 T01800082
KPDC 220255Z AUTO 13003KT 10SM CLR 19/08 A3017 RMK AO2 T01890080
KPDC 220235Z AUTO 13004KT 10SM CLR 19/08 A3017 RMK AO2 T01870082
KPDC 220215Z AUTO 12003KT 10SM CLR 18/09 A3017 RMK AO2 T01770087
KPDC 220155Z AUTO 12003KT 10SM CLR 17/09 A3017 RMK AO2 T01740089
KPDC 220135Z AUTO 10003KT 10SM CLR 18/09 A3017 RMK AO2 T01760090
KPDC 220115Z AUTO 11003KT 10SM CLR 18/09 A3017 RMK AO2 T01790092
KPDC 220055Z AUTO 10003KT 10SM CLR 18/09 A3017 RMK AO2 T01840092
KPDC 220035Z AUTO 10003KT 10SM CLR 19/10 A3016 RMK AO2 T01850095
KPDC 220015Z AUTO 11003KT 10SM CLR 19/09 A3016 RMK AO2 T01910090
KPDC 212355Z AUTO 11005KT 10SM CLR 20/08 A3016 RMK AO2 T02010082 10238 20201
KPDC 212335Z AUTO 12006KT 10SM CLR 21/08 A3015 RMK AO2 T02140079
KPDC 212315Z AUTO 13006KT 10SM CLR 22/09 A3015 RMK AO2 T02210090
KPDC 212255Z AUTO 12005KT 10SM CLR 23/10 A3016 RMK AO2 T02250095
KPDC 212235Z AUTO 13005KT 10SM CLR 23/09 A3016 RMK AO2 T02280090
KPDC 212215Z AUTO 15007KT 10SM CLR 23/09 A3017 RMK AO2 T02320089
KPDC 212155Z AUTO 14006KT 10SM CLR 24/09 A3017 RMK AO2 T02350090
KPDC 212135Z AUTO 15005KT 10SM CLR 23/09 A3018 RMK AO2 T02330092
KPDC 212115Z AUTO 16005KT 10SM SCT120 23/09 A3018 RMK AO2 T02340090
KPDC 212055Z AUTO 14008KT 10SM CLR 24/09 A3020 RMK AO2 T02380094
KPDC 212035Z AUTO 15006KT 10SM CLR 24/10 A3020 RMK AO2 T02370098
KPDC 212015Z AUTO 16008KT 10SM CLR 24/10 A3020 RMK AO2 T02360103
KPDC 211955Z AUTO 14008KT 10SM CLR 24/11 A3021 RMK AO2 T02370106
KPDC 211935Z AUTO 16009KT 10SM CLR 23/10 A3021 RMK AO2 T02310101
KPDC 211915Z AUTO 16005KT 10SM CLR 23/10 A3022 RMK AO2 T02290099
KPDC 211855Z AUTO 18006KT 10SM CLR 23/10 A3023 RMK AO2 T02260097
KPDC 211835Z AUTO 15006KT 10SM CLR 22/09 A3024 RMK AO2 T02230094
KPDC 211815Z AUTO 17005KT 10SM CLR 22/09 A3025 RMK AO2 T02190093
KPDC 211755Z AUTO 15005KT 10SM CLR 22/09 A3026 RMK AO2 T02160091 10216 20088
KPDC 211735Z AUTO 15007KT 10SM CLR 21/09 A3026 RMK AO2 T02100086
KPDC 211715Z AUTO 17005KT 10SM CLR 21/09 A3027 RMK AO2 T02070086
KPDC 211655Z AUTO 17005KT 10SM CLR 20/08 A3028 RMK AO2 T02000083
KPDC 211635Z AUTO 18004KT 10SM CLR 19/08 A3028 RMK AO2 T01900078
KPDC 211615Z AUTO 18003KT 10SM CLR 19/08 A3029 RMK AO2 T01860075
KPDC 211555Z AUTO 14004KT 10SM CLR 18/07 A3029 RMK AO2 T01760071
KPDC 211535Z AUTO 13003KT 10SM CLR 17/07 A3030 RMK AO2 T01700065
KPDC 211515Z AUTO 13004KT 10SM CLR 17/06 A3030 RMK AO2 T01660060
KPDC 211455Z AUTO 14003KT 10SM CLR 16/06 A3031 RMK AO2 T01610057
KPDC 211435Z AUTO 11005KT 10SM CLR 15/05 A3030 RMK AO2 T01530054
KPDC 211415Z AUTO 10005KT 10SM CLR 14/05 A3030 RMK AO2 T01420054
KPDC 211355Z AUTO 11004KT 10SM CLR 14/06 A3030 RMK AO2 T01360058
KPDC 211335Z AUTO 10006KT 10SM CLR 13/05 A3031 RMK AO2 T01280052
KPDC 211315Z AUTO 10006KT 10SM CLR 12/05 A3031 RMK AO2 T01200053
KPDC 211255Z AUTO 10006KT 10SM CLR 11/05 A3031 RMK AO2 T01100050
KPDC 211235Z AUTO 10006KT 10SM CLR 10/05 A3031 RMK AO2 T00980050
KPDC 211215Z AUTO 11006KT 10SM CLR 09/05 A3030 RMK AO2 T00930049
KPDC 211155Z AUTO 00000KT 10SM CLR 09/06 A3030 RMK AO2 T00920055 10124 20092
KPDC 211135Z AUTO 00000KT 10SM CLR 10/04 A3030 RMK AO2 T01020044
KPDC 211115Z AUTO 08005KT 10SM CLR 10/04 A3029 RMK AO2 T00990044
KPDC 211055Z AUTO 09006KT 10SM CLR 10/05 A3029 RMK AO2 T01010046
KPDC 211035Z AUTO 12005KT 10SM CLR 10/05 A3029 RMK AO2 T01000047